createdAt,value
2022-12-16T00:01:36.541Z,18.60
2022-12-16T00:04:04.709Z,21.20
2022-12-16T00:06:34.843Z,19.10
2022-12-16T00:09:04.071Z,19.87
2022-12-16T00:11:32.616Z,18.03
2022-12-16T00:14:00.746Z,18.90
2022-12-16T00:16:29.086Z,20.00
2022-12-16T00:18:57.236Z,18.67
2022-12-16T00:21:28.658Z,21.50
2022-12-16T00:23:56.884Z,19.90
2022-12-16T00:26:26.404Z,19.93
2022-12-16T00:28:54.799Z,19.80
2022-12-16T00:31:22.915Z,19.70
2022-12-16T00:33:52.859Z,19.80
2022-12-16T00:36:20.706Z,20.93
2022-12-16T00:38:48.611Z,20.07
2022-12-16T00:41:16.465Z,20.23
2022-12-16T00:43:45.692Z,17.43
2022-12-16T00:46:13.653Z,19.50
2022-12-16T00:48:41.533Z,19.47
2022-12-16T00:51:09.365Z,19.83
2022-12-16T00:53:38.276Z,19.77
2022-12-16T03:40:40.502Z,12.17
2022-12-16T03:43:09.756Z,12.47
2022-12-16T03:45:40.041Z,15.57
2022-12-16T03:48:10.046Z,14.80
2022-12-16T03:50:39.355Z,16.80
2022-12-16T03:53:08.250Z,16.53
2022-12-16T03:55:37.845Z,14.67
2022-12-16T03:58:05.728Z,17.60
2022-12-16T04:00:33.771Z,17.00
2022-12-16T04:03:01.808Z,18.63
2022-12-16T04:05:29.954Z,17.23
2022-12-16T04:08:01.894Z,19.07
2022-12-16T04:10:47.518Z,17.77
2022-12-16T04:13:34.570Z,16.10
2022-12-16T04:16:20.447Z,17.90
2022-12-16T04:19:07.042Z,16.70
2022-12-16T04:21:52.827Z,18.17
2022-12-16T04:24:24.164Z,17.37
2022-12-16T04:27:15.293Z,18.50
2022-12-16T04:30:02.724Z,16.63
2022-12-16T04:32:52.160Z,18.30
2022-12-16T04:35:37.856Z,18.70
2022-12-16T04:38:23.417Z,18.90
2022-12-16T04:41:09.078Z,17.83
2022-12-16T04:43:54.751Z,19.20
2022-12-16T04:46:42.049Z,19.00
2022-12-16T04:49:28.102Z,19.30
2022-12-16T04:52:13.628Z,17.83
2022-12-16T04:54:59.183Z,19.10
2022-12-16T04:57:44.859Z,20.07
2022-12-16T05:00:31.312Z,21.87
2022-12-16T05:03:18.821Z,20.00
2022-12-16T05:06:04.173Z,19.00
2022-12-16T05:08:49.957Z,16.73
2022-12-16T05:11:35.476Z,19.80
2022-12-16T05:14:20.825Z,20.10
2022-12-16T05:17:06.500Z,19.27
2022-12-16T05:19:53.290Z,18.07
2022-12-16T05:22:38.973Z,15.73
2022-12-16T05:25:25.949Z,16.87
2022-12-16T05:28:11.815Z,18.00
2022-12-16T05:30:57.437Z,17.57
2022-12-16T05:33:42.929Z,16.70
2022-12-16T05:36:29.627Z,15.70
2022-12-16T05:39:14.786Z,15.03
2022-12-16T05:41:59.840Z,15.80
2022-12-16T05:44:45.666Z,17.30
2022-12-16T05:47:31.377Z,16.43
2022-12-16T05:50:17.072Z,17.20
2022-12-16T05:53:08.892Z,16.00
2022-12-16T05:55:54.506Z,17.73
2022-12-16T05:58:40.348Z,16.47
2022-12-16T06:01:25.722Z,15.07
2022-12-16T06:04:17.083Z,15.20
2022-12-16T06:07:03.143Z,15.73
2022-12-16T06:09:56.066Z,15.90
2022-12-16T06:12:48.179Z,16.07
2022-12-16T06:15:34.060Z,15.37
2022-12-16T06:19:10.181Z,16.57
2022-12-16T06:21:55.780Z,13.40
2022-12-16T06:24:41.250Z,14.97
2022-12-16T06:27:42.676Z,16.30
2022-12-16T06:30:29.769Z,14.93
2022-12-16T06:37:26.515Z,23.47
2022-12-16T06:40:11.935Z,15.03
2022-12-16T06:43:00.537Z,14.27
2022-12-16T06:48:46.597Z,15.57
2022-12-16T06:51:32.014Z,13.53
2022-12-16T06:54:48.875Z,13.43
2022-12-16T21:29:38.331Z,7.10
2022-12-16T21:32:23.753Z,6.13
2022-12-16T21:35:11.412Z,7.13
2022-12-16T21:37:57.654Z,7.63
2022-12-16T21:40:43.298Z,7.37
2022-12-16T21:43:34.793Z,6.60
2022-12-16T21:46:23.331Z,7.73
2022-12-16T21:49:10.926Z,7.23
2022-12-16T21:51:56.525Z,7.57
2022-12-16T21:54:42.421Z,7.53
2022-12-16T21:57:30.267Z,9.63
2022-12-16T22:00:19.419Z,7.77
2022-12-16T22:03:06.563Z,7.50
2022-12-16T22:05:57.031Z,8.20
2022-12-16T22:08:42.846Z,8.80
2022-12-16T22:11:28.841Z,7.70
2022-12-16T22:14:14.621Z,9.20
2022-12-16T22:17:00.661Z,8.03
2022-12-16T22:19:58.434Z,10.17
2022-12-16T22:22:54.610Z,9.10
2022-12-16T22:25:52.183Z,13.97
2022-12-16T22:28:41.743Z,10.30
2022-12-16T22:31:30.670Z,8.53
2022-12-16T22:34:21.491Z,7.47
2022-12-16T22:37:14.953Z,7.77
2022-12-16T22:40:06.582Z,7.90
2022-12-16T22:42:59.090Z,8.10
2022-12-16T22:49:00.413Z,9.13
2022-12-16T22:51:51.133Z,8.03
2022-12-16T22:54:45.536Z,8.13
2022-12-16T22:57:40.759Z,8.47
2022-12-16T23:00:36.184Z,6.97
2022-12-16T23:03:22.218Z,8.10
2022-12-16T23:06:07.841Z,8.17
2022-12-16T23:08:54.105Z,7.10
2022-12-16T23:11:44.033Z,8.50
2022-12-16T23:14:29.604Z,7.37
2022-12-16T23:17:19.057Z,7.80
2022-12-16T23:20:04.401Z,7.53
2022-12-16T23:22:49.777Z,6.90
2022-12-16T23:25:36.067Z,7.97
2022-12-16T23:28:23.417Z,7.10
2022-12-16T23:31:19.517Z,7.83
2022-12-16T23:32:31.375Z,8.00
2022-12-16T23:34:04.874Z,8.30
2022-12-16T23:36:50.910Z,7.47
2022-12-16T23:39:41.373Z,7.43
2022-12-16T23:42:27.814Z,7.17
2022-12-16T23:45:21.352Z,7.30
2022-12-16T23:48:09.122Z,7.83
2022-12-16T23:50:57.473Z,7.83
2022-12-16T23:53:46.956Z,8.53
2022-12-16T23:56:32.659Z,7.50
2022-12-16T23:59:18.777Z,7.77
